• Join FlightAware (Why Join?)
  • Login
  • US Flag 
09:24PM EDT


 

Airport Tracker/Info


-or-


 

Live Flight TrackerFlight Track Log ✈ N700CT ✈ 04-May-2013 ✈ KDEN - KSBS

Flight Track Log - Related Links

Times and Time Zones

All times are in EDT time to prevent confusion due to time zone crossing. See the N700CT flight status page for this flight to view local times or setup timezone preferences in your user account.

Time Position Orientation Groundspeed Altitude Reporting Facility
EDT Latitude Longitude Course Direction KTS MPH feet Rate Location/Type
12:11PM 39.9000 -104.7167 266° West 160 184 6,900  Level Denver TRACON
12:11PM 39.8992 -104.7342 266° West 156 180 7,400 1,920 Climbing Denver Center
12:12PM 39.9192 -104.7936 294° West 165 190 9,400 1,740 Climbing Denver Center
12:13PM 39.9203 -104.8536 271° West 170 196 11,000 1,560 Climbing Denver Center
12:14PM 39.9219 -104.9153 272° West 171 197 12,700 1,740 Climbing Denver Center
12:15PM 39.9328 -104.9783 283° West 167 192 14,700 1,680 Climbing Denver Center
12:16PM 39.9397 -105.0378 279° West 167 192 16,200 1,500 Climbing Denver Center
12:17PM 39.9486 -105.1006 280° West 164 189 17,800 1,320 Climbing Denver Center
12:18PM 39.9600 -105.1639 283° West 177 204 19,000 1,020 Climbing Denver Center
12:19PM 39.9661 -105.2289 277° West 181 208 20,000 480 Climbing Denver Center
12:20PM 39.9806 -105.3158 282° West 229 264 20,000  Level Denver Center
12:21PM 39.9931 -105.4028 281° West 245 282 20,000  Level Denver Center
12:22PM 40.0081 -105.4981 282° West 249 287 20,000  Level Denver Center
12:23PM 40.0244 -105.5872 284° West 252 290 20,000  Level Denver Center
12:24PM 40.0411 -105.6753 284° West 250 288 20,000  Level Denver Center
12:25PM 40.0567 -105.7711 282° West 252 290 20,000  Level Denver Center
12:26PM 40.0711 -105.8511 283° West 245 282 20,000 -240 Level Denver Center
12:27PM 40.0869 -105.9403 283° West 247 284 19,600 -540 Descending Denver Center
12:28PM 40.1044 -106.0442 282° West 249 287 19,000 -660 Descending Denver Center
12:29PM 40.1189 -106.1317 282° West 246 283 18,300 -720 Descending Denver Center
12:30PM 40.1331 -106.2167 282° West 243 280 17,600 -720 Descending Denver Center
12:31PM 40.1469 -106.3017 282° West 240 276 16,900 -720 Descending Denver Center
12:32PM 40.1619 -106.3867 283° West 240 276 16,200 -720 Descending Denver Center
12:33PM 40.1767 -106.4706 283° West 240 276 15,500 -720 Descending Denver Center
12:34PM 40.1892 -106.5522 281° West 236 272 14,800 -720 Descending Denver Center
12:36PM 40.2033 -106.6317 283° West 231 266 14,100 -840 Descending Denver Center
12:37PM 40.2181 -106.7250 282° West 224 258 13,100 -540 Descending Denver Center
12:38PM 40.2381 -106.7975 290° West 224 258 13,000 -120 Descending Denver Center
12:39PM 40.2936 -106.8133 348° North 206 237 12,900 -480 Descending Denver Center
12:40PM 40.3414 -106.8297 345° North 187 215 12,100 -840 Descending Denver Center
12:41PM 40.3906 -106.8464 346° North 169 194 11,200 -840 Descending Denver Center
12:42PM 40.4331 -106.8594 347° North 160 184 10,400 -900 Descending Denver Center
12:43PM 40.4761 -106.8681 351° North 158 182 9,400 -1,020 Descending Denver Center
12:44PM 40.5158 -106.8853 342° North 153 176 8,400 -900 Descending Denver Center
12:45PM 40.5389 -106.8886 354° North 139 160 7,600 -540 Descending Denver Center
12:46PM 40.5147 -106.8500 129° Southeast 135 155 7,300 -300 Descending Denver Center